Time;durP1;ratioP1;P1;durP2;ratioP2;P2;SDS_P1;SDS_P2;PMS_P1;PMS_P2;Temp;Humidity;BMP_temperature;BMP_pressure;BME280_temperature;BME280_humidity;BME280_pressure;Samples;Min_cycle;Max_cycle;Signal;HPM_P1;HPM_P2
2024/04/24 00:01:13;;;;;;;;;;;;;;;;;;5443110;26;20005;-64
2024/04/24 00:03:39;;;;;;;;;;;;;;;;;;5433311;26;20016;-64
2024/04/24 00:06:04;;;;;;;;;;;;;;;;;;5435778;26;20366;-64
2024/04/24 00:08:29;;;;;;;;;;;;;;;;;;5434456;26;20623;-64
2024/04/24 00:10:54;;;;;;;;;;;;;;;;;;5427910;26;20047;-64
2024/04/24 00:13:19;;;;;;;;;;;;;;;;;;5437302;26;21113;-64
2024/04/24 00:15:44;;;;;;;;;;;;;;;;;;5431063;26;19940;-64
2024/04/24 00:18:09;;;;;;;;;;;;;;;;;;5430599;26;20434;-64
2024/04/24 00:20:34;;;;;;;;;;;;;;;;;;5425284;26;20429;-64
2024/04/24 00:22:59;;;;;;;;;;;;;;;;;;5424039;26;19935;-64
2024/04/24 00:25:24;;;;;;;;;;;;;;;;;;5426411;26;19928;-64
2024/04/24 00:27:49;;;;;;;;;;;;;;;;;;5434818;26;19928;-64
2024/04/24 00:30:15;;;;;;;;;;;;;;;;;;5424209;26;19932;-64
2024/04/24 00:32:40;;;;;;;;;;;;;;;;;;5421390;26;20433;-64
2024/04/24 00:35:05;;;;;;;;;;;;;;;;;;5432652;26;19936;-64
2024/04/24 00:37:30;;;;;;;;;;;;;;;;;;5434412;26;19937;-64
2024/04/24 00:39:55;;;;;;;;;;;;;;;;;;5437774;26;19928;-64
2024/04/24 00:42:20;;;;;;;;;;;;;;;;;;5433801;26;20258;-64
2024/04/24 00:44:46;;;;;;;;;;;;;;;;;;5435867;26;19932;-64
2024/04/24 00:47:12;;;;;;;;;;;;;;;;;;5446091;26;19941;-64
2024/04/24 00:49:37;;;;;;;;;;;;;;;;;;5437445;26;20442;-64
2024/04/24 00:52:02;;;;;;;;;;;;;;;;;;5424159;26;20452;-65
2024/04/24 00:54:27;;;;;;;;;;;;;;;;;;5445693;26;19994;-64
2024/04/24 00:56:53;;;;;;;;;;;;;;;;;;5446101;26;19928;-64
2024/04/24 00:59:18;;;;;;;;;;;;;;;;;;5431131;26;19997;-64
2024/04/24 01:01:43;;;;;;;;;;;;;;;;;;5446179;26;19935;-64
2024/04/24 01:04:08;;;;;;;;;;;;;;;;;;5429652;26;20362;-64
2024/04/24 01:06:33;;;;;;;;;;;;;;;;;;5433825;26;19928;-64
2024/04/24 01:08:58;;;;;;;;;;;;;;;;;;5445584;26;19936;-64
2024/04/24 01:11:23;;;;;;;;;;;;;;;;;;5445358;26;19957;-64
2024/04/24 01:13:48;;;;;;;;;;;;;;;;;;5445445;26;19936;-64
2024/04/24 01:16:13;;;;;;;;;;;;;;;;;;5438266;26;19936;-64
2024/04/24 01:18:38;;;;;;;;;;;;;;;;;;5427043;26;19936;-64
2024/04/24 01:21:03;;;;;;;;;;;;;;;;;;5435671;26;19928;-64
2024/04/24 01:23:28;;;;;;;;;;;;;;;;;;5445774;26;20316;-64
2024/04/24 01:25:54;;;;;;;;;;;;;;;;;;5433610;26;19929;-64
2024/04/24 01:28:19;;;;;;;;;;;;;;;;;;5441435;26;20146;-64
2024/04/24 01:30:44;;;;;;;;;;;;;;;;;;5445455;26;19935;-64
2024/04/24 01:33:09;;;;;;;;;;;;;;;;;;5444679;26;20307;-64
2024/04/24 01:35:34;;;;;;;;;;;;;;;;;;5425170;26;19933;-63
2024/04/24 01:37:59;;;;;;;;;;;;;;;;;;5427445;26;20000;-64
2024/04/24 01:40:24;;;;;;;;;;;;;;;;;;5441035;26;20357;-64
2024/04/24 01:42:49;;;;;;;;;;;;;;;;;;5425497;26;19929;-64
2024/04/24 01:45:14;;;;;;;;;;;;;;;;;;5438193;26;19956;-64
2024/04/24 01:47:39;;;;;;;;;;;;;;;;;;5444538;26;20022;-64
2024/04/24 01:50:05;;;;;;;;;;;;;;;;;;5439513;26;20255;-66
2024/04/24 01:52:30;;;;;;;;;;;;;;;;;;5440548;26;19936;-64
2024/04/24 01:54:55;;;;;;;;;;;;;;;;;;5421165;26;19928;-64
2024/04/24 01:57:20;;;;;;;;;;;;;;;;;;5425927;26;19932;-64
2024/04/24 01:59:46;;;;;;;;;;;;;;;;;;5409456;26;19933;-64
2024/04/24 02:02:11;;;;;;;;;;;;;;;;;;5441129;26;19928;-64
2024/04/24 02:04:36;;;;;;;;;;;;;;;;;;5442729;26;19940;-64
2024/04/24 02:07:01;;;;;;;;;;;;;;;;;;5432306;26;20453;-64
2024/04/24 02:09:26;;;;;;;;;;;;;;;;;;5428461;26;19959;-64
2024/04/24 02:11:51;;;;;;;;;;;;;;;;;;5435878;26;19929;-64
2024/04/24 02:14:16;;;;;;;;;;;;;;;;;;5424583;26;20314;-64
2024/04/24 02:16:41;;;;;;;;;;;;;;;;;;5437537;26;19929;-64
2024/04/24 02:19:06;;;;;;;;;;;;;;;;;;5437832;26;19943;-64
2024/04/24 02:21:31;;;;;;;;;;;;;;;;;;5444535;26;19936;-64
2024/04/24 02:23:58;;;;;;;;;;;;;;;;;;5444299;26;20013;-64
2024/04/24 02:26:23;;;;;;;;;;;;;;;;;;5442313;26;19996;-64
2024/04/24 02:28:48;;;;;;;;;;;;;;;;;;5443179;26;19936;-64
2024/04/24 02:31:13;;;;;;;;;;;;;;;;;;5443295;26;20008;-64
2024/04/24 02:33:39;;;;;;;;;;;;;;;;;;5445495;26;19997;-64
2024/04/24 02:36:04;;;;;;;;;;;;;;;;;;5432408;26;20001;-64
2024/04/24 02:38:29;;;;;;;;;;;;;;;;;;5444958;26;20540;-64
2024/04/24 02:40:55;;;;;;;;;;;;;;;;;;5421065;26;19961;-64
2024/04/24 02:43:20;;;;;;;;;;;;;;;;;;5439384;26;19928;-64
2024/04/24 02:45:45;;;;;;;;;;;;;;;;;;5444227;26;19991;-64
2024/04/24 02:48:11;;;;;;;;;;;;;;;;;;5444535;26;19928;-64
2024/04/24 02:50:36;;;;;;;;;;;;;;;;;;5416302;26;19936;-64
2024/04/24 02:53:01;;;;;;;;;;;;;;;;;;5444619;26;20023;-64
2024/04/24 02:55:26;;;;;;;;;;;;;;;;;;5431360;26;20457;-64
2024/04/24 02:57:51;;;;;;;;;;;;;;;;;;5445004;26;20192;-64
2024/04/24 03:00:16;;;;;;;;;;;;;;;;;;5429229;26;19929;-64
2024/04/24 03:02:41;;;;;;;;;;;;;;;;;;5429138;26;19954;-64
2024/04/24 03:05:06;;;;;;;;;;;;;;;;;;5431783;26;19941;-64
2024/04/24 03:07:31;;;;;;;;;;;;;;;;;;5443375;26;19929;-64
2024/04/24 03:09:56;;;;;;;;;;;;;;;;;;5434642;26;19932;-64
2024/04/24 03:12:24;;;;;;;;;;;;;;;;;;5438525;26;19928;-64
2024/04/24 03:14:49;;;;;;;;;;;;;;;;;;5407855;26;19929;-64
2024/04/24 03:17:14;;;;;;;;;;;;;;;;;;5438040;26;20057;-64
2024/04/24 03:19:39;;;;;;;;;;;;;;;;;;5439739;26;19963;-64
2024/04/24 03:22:04;;;;;;;;;;;;;;;;;;5451012;26;19928;-64
2024/04/24 03:24:31;;;;;;;;;;;;;;;;;;5461420;25;19953;-64
2024/04/24 03:26:56;;;;;;;;;;;;;;;;;;5464206;25;19936;-64
2024/04/24 03:29:22;;;;;;;;;;;;;;;;;;5473643;25;19928;-64
2024/04/24 03:31:47;;;;;;;;;;;;;;;;;;5447744;26;19933;-64
2024/04/24 03:34:12;;;;;;;;;;;;;;;;;;5473256;25;20388;-64
2024/04/24 03:36:37;;;;;;;;;;;;;;;;;;5473394;25;19932;-64
2024/04/24 03:39:02;;;;;;;;;;;;;;;;;;5443887;26;20212;-64
2024/04/24 03:41:27;;;;;;;;;;;;;;;;;;5460269;26;20351;-64
2024/04/24 03:43:52;;;;;;;;;;;;;;;;;;5464905;25;20000;-64
2024/04/24 03:46:17;;;;;;;;;;;;;;;;;;5462025;25;19928;-64
2024/04/24 03:48:42;;;;;;;;;;;;;;;;;;5463963;26;19935;-64
2024/04/24 03:51:07;;;;;;;;;;;;;;;;;;5479383;26;20338;-64
2024/04/24 03:53:32;;;;;;;;;;;;;;;;;;5476015;26;20330;-64
2024/04/24 03:55:58;;;;;;;;;;;;;;;;;;5444536;26;19939;-64
2024/04/24 03:58:23;;;;;;;;;;;;;;;;;;5473967;25;19927;-64
2024/04/24 04:00:48;;;;;;;;;;;;;;;;;;5461343;25;19936;-64
2024/04/24 04:03:13;;;;;;;;;;;;;;;;;;5453216;26;20000;-65
2024/04/24 04:05:38;;;;;;;;;;;;;;;;;;5479445;25;19993;-65
2024/04/24 04:08:03;;;;;;;;;;;;;;;;;;5453366;25;20266;-65
2024/04/24 04:10:28;;;;;;;;;;;;;;;;;;5464503;25;19936;-65
2024/04/24 04:12:53;;;;;;;;;;;;;;;;;;5469930;25;19929;-66
2024/04/24 04:15:18;;;;;;;;;;;;;;;;;;5440578;26;19941;-66
2024/04/24 04:17:43;;;;;;;;;;;;;;;;;;5463102;25;19996;-66
2024/04/24 04:20:09;;;;;;;;;;;;;;;;;;5475209;25;19931;-65
2024/04/24 04:22:34;;;;;;;;;;;;;;;;;;5482272;26;19928;-65
2024/04/24 04:24:59;;;;;;;;;;;;;;;;;;5454314;26;20236;-65
2024/04/24 04:27:26;;;;;;;;;;;;;;;;;;5458956;26;19987;-66
2024/04/24 04:29:51;;;;;;;;;;;;;;;;;;5471330;26;20350;-66
2024/04/24 04:32:16;;;;;;;;;;;;;;;;;;5471464;25;19928;-66
2024/04/24 04:34:44;;;;;;;;;;;;;;;;;;5470273;25;19984;-65
2024/04/24 04:37:09;;;;;;;;;;;;;;;;;;5463806;26;19932;-66
2024/04/24 04:39:34;;;;;;;;;;;;;;;;;;5477595;26;19928;-65
2024/04/24 04:41:59;;;;;;;;;;;;;;;;;;5454766;26;19937;-66
2024/04/24 04:44:24;;;;;;;;;;;;;;;;;;5457135;26;20039;-65
2024/04/24 04:46:50;;;;;;;;;;;;;;;;;;5464077;26;19935;-65
2024/04/24 04:49:15;;;;;;;;;;;;;;;;;;5478108;25;20048;-66
2024/04/24 04:51:40;;;;;;;;;;;;;;;;;;5435338;25;19961;-65
2024/04/24 04:54:05;;;;;;;;;;;;;;;;;;5436816;26;19936;-66
2024/04/24 04:56:30;;;;;;;;;;;;;;;;;;5427010;26;19937;-65
2024/04/24 04:58:55;;;;;;;;;;;;;;;;;;5438803;26;19935;-65
2024/04/24 05:01:20;;;;;;;;;;;;;;;;;;5442757;26;19934;-66
2024/04/24 05:03:45;;;;;;;;;;;;;;;;;;5442216;25;19928;-65
2024/04/24 05:06:11;;;;;;;;;;;;;;;;;;5441248;25;20273;-65
2024/04/24 05:08:36;;;;;;;;;;;;;;;;;;5426763;26;20298;-65
2024/04/24 05:11:01;;;;;;;;;;;;;;;;;;5441470;25;19978;-64
2024/04/24 05:13:26;;;;;;;;;;;;;;;;;;5442481;25;19933;-65
2024/04/24 05:15:51;;;;;;;;;;;;;;;;;;5442231;25;20001;-66
2024/04/24 05:18:16;;;;;;;;;;;;;;;;;;5441288;25;19935;-65
2024/04/24 05:20:41;;;;;;;;;;;;;;;;;;5464847;25;20002;-66
2024/04/24 05:23:06;;;;;;;;;;;;;;;;;;5478789;26;19932;-65
2024/04/24 05:25:32;;;;;;;;;;;;;;;;;;5446854;26;19929;-66
2024/04/24 05:30:41;;;;;;;;;;;;;;;;;;5483635;25;20017;-65
2024/04/24 05:33:06;;;;;;;;;;;;;;;;;;5481750;25;19939;-66
2024/04/24 05:35:31;;;;;;;;;;;;;;;;;;5472492;26;19938;-65
2024/04/24 05:37:56;;;;;;;;;;;;;;;;;;5473247;26;19939;-65
2024/04/24 05:40:21;;;;;;;;;;;;;;;;;;5459411;25;19940;-66
2024/04/24 05:42:46;;;;;;;;;;;;;;;;;;5470411;25;19935;-65
2024/04/24 05:45:12;;;;;;;;;;;;;;;;;;5462383;26;19944;-67
2024/04/24 05:47:37;;;;;;;;;;;;;;;;;;5481424;26;19928;-65
2024/04/24 05:50:03;;;;;;;;;;;;;;;;;;5482049;25;19965;-66
2024/04/24 05:52:28;;;;;;;;;;;;;;;;;;5459162;25;20339;-66
2024/04/24 05:54:53;;;;;;;;;;;;;;;;;;5445095;26;19928;-66
2024/04/24 05:57:18;;;;;;;;;;;;;;;;;;5456428;26;19938;-65
2024/04/24 05:59:43;;;;;;;;;;;;;;;;;;5469052;26;19929;-66
2024/04/24 06:02:08;;;;;;;;;;;;;;;;;;5438723;26;20265;-65
2024/04/24 06:04:33;;;;;;;;;;;;;;;;;;5452962;26;19935;-66
2024/04/24 06:06:58;;;;;;;;;;;;;;;;;;5473283;26;19929;-66
2024/04/24 06:09:23;;;;;;;;;;;;;;;;;;5473680;25;19962;-65
2024/04/24 06:11:48;;;;;;;;;;;;;;;;;;5480879;25;19928;-66
2024/04/24 06:14:14;;;;;;;;;;;;;;;;;;5468234;25;20000;-66
2024/04/24 06:16:39;;;;;;;;;;;;;;;;;;5474582;26;20289;-66
2024/04/24 06:19:04;;;;;;;;;;;;;;;;;;5466626;26;19928;-66
2024/04/24 06:21:29;;;;;;;;;;;;;;;;;;5477588;26;19961;-66
2024/04/24 06:23:54;;;;;;;;;;;;;;;;;;5502218;25;19932;-66
2024/04/24 06:26:19;;;;;;;;;;;;;;;;;;5495752;25;20007;-66
2024/04/24 06:28:44;;;;;;;;;;;;;;;;;;5474572;25;19932;-66
2024/04/24 06:31:10;;;;;;;;;;;;;;;;;;5479409;25;19928;-66
2024/04/24 06:33:35;;;;;;;;;;;;;;;;;;5479136;25;20288;-66
2024/04/24 06:36:00;;;;;;;;;;;;;;;;;;5481822;25;19972;-66
2024/04/24 06:38:25;;;;;;;;;;;;;;;;;;5480670;25;19935;-65
2024/04/24 06:40:50;;;;;;;;;;;;;;;;;;5463038;25;19944;-66
2024/04/24 06:43:19;;;;;;;;;;;;;;;;;;5450720;26;20262;-66
2024/04/24 06:45:44;;;;;;;;;;;;;;;;;;5462885;26;19996;-66
2024/04/24 06:48:09;;;;;;;;;;;;;;;;;;5481225;25;19939;-66
2024/04/24 06:50:34;;;;;;;;;;;;;;;;;;5458414;25;19997;-65
2024/04/24 06:52:59;;;;;;;;;;;;;;;;;;5444701;26;19933;-66
2024/04/24 06:55:25;;;;;;;;;;;;;;;;;;5443679;25;19929;-66
2024/04/24 06:57:51;;;;;;;;;;;;;;;;;;5443483;26;19929;-66
2024/04/24 07:00:16;;;;;;;;;;;;;;;;;;5476996;26;19928;-67
2024/04/24 07:02:41;;;;;;;;;;;;;;;;;;5480985;25;19961;-66
2024/04/24 07:05:06;;;;;;;;;;;;;;;;;;5479241;25;20250;-67
2024/04/24 07:07:31;;;;;;;;;;;;;;;;;;5448998;25;19940;-66
2024/04/24 07:09:56;;;;;;;;;;;;;;;;;;5472997;26;19965;-67
2024/04/24 07:12:22;;;;;;;;;;;;;;;;;;5477562;25;19955;-67
2024/04/24 07:14:47;;;;;;;;;;;;;;;;;;5476395;25;19931;-67
2024/04/24 07:17:12;;;;;;;;;;;;;;;;;;5459384;26;20273;-67
2024/04/24 07:19:37;;;;;;;;;;;;;;;;;;5461315;26;20365;-67
2024/04/24 07:22:02;;;;;;;;;;;;;;;;;;5485168;25;19932;-67
2024/04/24 07:24:27;;;;;;;;;;;;;;;;;;5465377;25;20371;-67
2024/04/24 07:26:52;;;;;;;;;;;;;;;;;;5441388;25;19935;-67
2024/04/24 07:29:18;;;;;;;;;;;;;;;;;;5417414;26;19935;-67
2024/04/24 07:31:43;;;;;;;;;;;;;;;;;;5456346;25;19928;-67
2024/04/24 07:34:08;;;;;;;;;;;;;;;;;;5447569;26;19996;-66
2024/04/24 07:36:33;;;;;;;;;;;;;;;;;;5436458;26;20383;-67
2024/04/24 07:38:58;;;;;;;;;;;;;;;;;;5431782;26;19960;-67
2024/04/24 07:41:23;;;;;;;;;;;;;;;;;;5438043;26;19997;-66
2024/04/24 07:43:48;;;;;;;;;;;;;;;;;;5456588;26;19929;-66
2024/04/24 07:46:13;;;;;;;;;;;;;;;;;;5431107;26;19933;-66
2024/04/24 07:48:38;;;;;;;;;;;;;;;;;;5447996;26;20401;-67
2024/04/24 07:51:04;;;;;;;;;;;;;;;;;;5470535;26;19935;-66
2024/04/24 07:53:29;;;;;;;;;;;;;;;;;;5465153;26;19935;-66
2024/04/24 07:55:54;;;;;;;;;;;;;;;;;;5455885;26;20000;-66
2024/04/24 07:58:19;;;;;;;;;;;;;;;;;;5452088;26;19956;-66
2024/04/24 08:00:44;;;;;;;;;;;;;;;;;;5460994;26;19933;-66
2024/04/24 08:03:09;;;;;;;;;;;;;;;;;;5477143;25;19938;-66
2024/04/24 08:05:34;;;;;;;;;;;;;;;;;;5484589;26;19928;-66
2024/04/24 08:08:00;;;;;;;;;;;;;;;;;;5462100;26;20671;-67
2024/04/24 08:10:25;;;;;;;;;;;;;;;;;;5468376;26;19944;-66
2024/04/24 08:12:50;;;;;;;;;;;;;;;;;;5434574;26;19929;-67
2024/04/24 08:15:15;;;;;;;;;;;;;;;;;;5478458;25;19935;-66
2024/04/24 08:17:40;;;;;;;;;;;;;;;;;;5493299;26;19967;-67
2024/04/24 08:20:05;;;;;;;;;;;;;;;;;;5496341;25;20317;-66
2024/04/24 08:22:30;;;;;;;;;;;;;;;;;;5471253;26;19997;-66
2024/04/24 08:24:55;;;;;;;;;;;;;;;;;;5471580;25;19935;-66
2024/04/24 08:27:20;;;;;;;;;;;;;;;;;;5458742;26;19961;-66
2024/04/24 08:29:45;;;;;;;;;;;;;;;;;;5482756;26;19936;-67
2024/04/24 08:32:10;;;;;;;;;;;;;;;;;;5443000;26;19928;-66
2024/04/24 08:34:36;;;;;;;;;;;;;;;;;;5426907;26;19962;-66
2024/04/24 08:37:01;;;;;;;;;;;;;;;;;;5445672;26;19928;-66
2024/04/24 08:39:26;;;;;;;;;;;;;;;;;;5434552;26;19936;-66
2024/04/24 08:41:51;;;;;;;;;;;;;;;;;;5420475;26;19935;-66
2024/04/24 08:44:17;;;;;;;;;;;;;;;;;;5429225;26;19929;-66
2024/04/24 08:46:42;;;;;;;;;;;;;;;;;;5424941;26;20380;-66
2024/04/24 08:49:07;;;;;;;;;;;;;;;;;;5450355;26;19932;-66
2024/04/24 08:51:32;;;;;;;;;;;;;;;;;;5463206;25;19930;-66
2024/04/24 08:53:57;;;;;;;;;;;;;;;;;;5439752;26;19928;-66
2024/04/24 08:56:25;;;;;;;;;;;;;;;;;;5440253;25;20288;-66
2024/04/24 08:58:50;;;;;;;;;;;;;;;;;;5468734;25;19951;-66
2024/04/24 09:01:15;;;;;;;;;;;;;;;;;;5460422;26;20372;-66
2024/04/24 09:03:40;;;;;;;;;;;;;;;;;;5482162;26;20188;-66
2024/04/24 09:06:05;;;;;;;;;;;;;;;;;;5459235;26;19928;-66
2024/04/24 09:08:31;;;;;;;;;;;;;;;;;;5488888;25;20257;-67
2024/04/24 09:10:56;;;;;;;;;;;;;;;;;;5471773;26;19997;-67
2024/04/24 09:13:21;;;;;;;;;;;;;;;;;;5468246;26;19929;-66
2024/04/24 09:15:47;;;;;;;;;;;;;;;;;;5451096;26;20030;-66
2024/04/24 09:18:12;;;;;;;;;;;;;;;;;;5475942;26;19927;-67
2024/04/24 09:20:37;;;;;;;;;;;;;;;;;;5465622;26;20175;-67
2024/04/24 09:23:03;;;;;;;;;;;;;;;;;;5472963;25;20346;-67
2024/04/24 09:25:28;;;;;;;;;;;;;;;;;;5473039;26;20389;-66
2024/04/24 09:27:53;;;;;;;;;;;;;;;;;;5485977;26;20938;-67
2024/04/24 09:30:18;;;;;;;;;;;;;;;;;;5481883;25;19939;-67
2024/04/24 09:32:43;;;;;;;;;;;;;;;;;;5477060;25;20652;-67
2024/04/24 09:35:08;;;;;;;;;;;;;;;;;;5502416;25;19928;-67
2024/04/24 09:37:33;;;;;;;;;;;;;;;;;;5481145;25;19948;-67
2024/04/24 09:39:58;;;;;;;;;;;;;;;;;;5475268;26;19932;-66
2024/04/24 09:42:23;;;;;;;;;;;;;;;;;;5480316;25;20341;-66
2024/04/24 09:44:49;;;;;;;;;;;;;;;;;;5492759;25;19933;-66
2024/04/24 09:47:14;;;;;;;;;;;;;;;;;;5492272;25;19983;-66
2024/04/24 09:49:40;;;;;;;;;;;;;;;;;;5466710;26;19935;-67
2024/04/24 09:52:05;;;;;;;;;;;;;;;;;;5481453;25;20272;-67
2024/04/24 09:54:30;;;;;;;;;;;;;;;;;;5480436;26;19996;-67
2024/04/24 09:56:58;;;;;;;;;;;;;;;;;;5480477;25;20265;-67
2024/04/24 09:59:23;;;;;;;;;;;;;;;;;;5497324;25;20288;-66
2024/04/24 10:01:49;;;;;;;;;;;;;;;;;;5476788;25;20392;-66
2024/04/24 10:04:15;;;;;;;;;;;;;;;;;;5466744;25;20025;-66
2024/04/24 10:06:42;;;;;;;;;;;;;;;;;;5482111;25;19936;-66
2024/04/24 10:09:08;;;;;;;;;;;;;;;;;;5510663;25;20286;-67
2024/04/24 10:11:33;;;;;;;;;;;;;;;;;;5480299;25;19929;-67
2024/04/24 10:14:00;;;;;;;;;;;;;;;;;;5511254;25;21317;-66
2024/04/24 10:16:25;;;;;;;;;;;;;;;;;;5505405;25;19928;-66
2024/04/24 10:18:50;;;;;;;;;;;;;;;;;;5499809;25;19943;-66
2024/04/24 10:21:15;;;;;;;;;;;;;;;;;;5490801;26;19938;-66
2024/04/24 10:23:40;;;;;;;;;;;;;;;;;;5488166;25;19927;-67
2024/04/24 10:26:05;;;;;;;;;;;;;;;;;;5450923;25;20280;-67
2024/04/24 10:28:30;;;;;;;;;;;;;;;;;;5469014;25;19928;-67
2024/04/24 10:30:57;;;;;;;;;;;;;;;;;;5495812;26;19934;-67
2024/04/24 10:33:22;;;;;;;;;;;;;;;;;;5492873;25;19939;-67
2024/04/24 10:35:47;;;;;;;;;;;;;;;;;;5491165;25;19939;-67
2024/04/24 10:38:12;;;;;;;;;;;;;;;;;;5492492;25;19928;-67
2024/04/24 10:40:37;;;;;;;;;;;;;;;;;;5473719;25;19936;-67
2024/04/24 10:43:02;;;;;;;;;;;;;;;;;;5496041;25;19936;-67
2024/04/24 10:45:28;;;;;;;;;;;;;;;;;;5487603;25;19927;-67
2024/04/24 10:47:53;;;;;;;;;;;;;;;;;;5493978;25;20544;-67
2024/04/24 10:50:19;;;;;;;;;;;;;;;;;;5508490;25;19976;-67
2024/04/24 10:52:44;;;;;;;;;;;;;;;;;;5475270;25;20369;-67
2024/04/24 10:55:09;;;;;;;;;;;;;;;;;;5485170;25;19934;-67
2024/04/24 10:57:34;;;;;;;;;;;;;;;;;;5462723;26;19936;-67
2024/04/24 10:59:59;;;;;;;;;;;;;;;;;;5471637;25;19928;-67
2024/04/24 11:02:24;;;;;;;;;;;;;;;;;;5481853;25;20017;-67
2024/04/24 11:04:49;;;;;;;;;;;;;;;;;;5470827;25;19928;-67
2024/04/24 11:07:14;;;;;;;;;;;;;;;;;;5460829;26;19935;-67
2024/04/24 11:09:39;;;;;;;;;;;;;;;;;;5475054;25;19932;-67
2024/04/24 11:12:07;;;;;;;;;;;;;;;;;;5501961;25;19935;-67
2024/04/24 11:14:32;;;;;;;;;;;;;;;;;;5509686;25;20257;-68
2024/04/24 11:16:58;;;;;;;;;;;;;;;;;;5484699;26;20512;-68
2024/04/24 11:19:23;;;;;;;;;;;;;;;;;;5475231;25;20299;-67
2024/04/24 11:21:51;;;;;;;;;;;;;;;;;;5478945;25;19939;-67
2024/04/24 11:24:17;;;;;;;;;;;;;;;;;;5479229;25;20611;-68
2024/04/24 11:26:42;;;;;;;;;;;;;;;;;;5464645;26;19928;-67
2024/04/24 11:29:07;;;;;;;;;;;;;;;;;;5470096;25;19997;-67
2024/04/24 11:31:33;;;;;;;;;;;;;;;;;;5471845;25;19939;-67
2024/04/24 11:33:58;;;;;;;;;;;;;;;;;;5485770;25;19936;-68
2024/04/24 11:36:23;;;;;;;;;;;;;;;;;;5471492;25;19978;-68
2024/04/24 11:38:48;;;;;;;;;;;;;;;;;;5451111;26;20433;-68
2024/04/24 11:41:13;;;;;;;;;;;;;;;;;;5468815;26;19932;-68
2024/04/24 11:43:38;;;;;;;;;;;;;;;;;;5474232;26;20315;-67
2024/04/24 11:46:04;;;;;;;;;;;;;;;;;;5495787;25;19928;-68
2024/04/24 11:48:29;;;;;;;;;;;;;;;;;;5503538;25;19928;-68
2024/04/24 11:50:55;;;;;;;;;;;;;;;;;;5487846;25;19928;-68
2024/04/24 11:53:20;;;;;;;;;;;;;;;;;;5485379;25;19974;-67
2024/04/24 11:55:45;;;;;;;;;;;;;;;;;;5465343;25;20388;-67
2024/04/24 11:58:10;;;;;;;;;;;;;;;;;;5484583;25;19928;-69
2024/04/24 12:00:35;;;;;;;;;;;;;;;;;;5483281;25;19927;-67
2024/04/24 12:03:00;;;;;;;;;;;;;;;;;;5475381;26;20377;-68
2024/04/24 12:05:25;;;;;;;;;;;;;;;;;;5479659;25;20361;-67
2024/04/24 12:07:50;;;;;;;;;;;;;;;;;;5476651;25;19932;-68
2024/04/24 12:10:15;;;;;;;;;;;;;;;;;;5470744;25;19934;-68
2024/04/24 12:12:41;;;;;;;;;;;;;;;;;;5466260;25;19939;-68
2024/04/24 12:15:06;;;;;;;;;;;;;;;;;;5491704;25;20289;-68
2024/04/24 12:17:31;;;;;;;;;;;;;;;;;;5489435;25;20402;-68
2024/04/24 12:19:56;;;;;;;;;;;;;;;;;;5487432;25;20276;-67
2024/04/24 12:22:21;;;;;;;;;;;;;;;;;;5461247;25;20004;-68
2024/04/24 12:24:47;;;;;;;;;;;;;;;;;;5471610;25;19947;-67
2024/04/24 12:27:12;;;;;;;;;;;;;;;;;;5470702;25;19928;-67
2024/04/24 12:29:37;;;;;;;;;;;;;;;;;;5477411;25;20015;-68
2024/04/24 12:32:02;;;;;;;;;;;;;;;;;;5472003;25;19928;-68
2024/04/24 12:34:27;;;;;;;;;;;;;;;;;;5459186;25;19946;-67
2024/04/24 12:36:54;;;;;;;;;;;;;;;;;;5471669;26;19935;-68
2024/04/24 12:39:19;;;;;;;;;;;;;;;;;;5483756;25;20021;-67
2024/04/24 12:41:44;;;;;;;;;;;;;;;;;;5482796;25;20273;-68
2024/04/24 12:44:09;;;;;;;;;;;;;;;;;;5472791;25;20162;-67
2024/04/24 12:46:34;;;;;;;;;;;;;;;;;;5457988;25;19928;-66
2024/04/24 12:49:02;;;;;;;;;;;;;;;;;;5473019;25;19932;-69
2024/04/24 12:51:27;;;;;;;;;;;;;;;;;;5482850;25;19936;-67
2024/04/24 12:53:53;;;;;;;;;;;;;;;;;;5479163;25;19929;-67
2024/04/24 12:56:18;;;;;;;;;;;;;;;;;;5479343;25;19935;-67
2024/04/24 12:58:43;;;;;;;;;;;;;;;;;;5465418;25;20350;-67
2024/04/24 13:01:09;;;;;;;;;;;;;;;;;;5482055;25;19928;-67
2024/04/24 13:03:34;;;;;;;;;;;;;;;;;;5482548;25;19940;-66
2024/04/24 13:05:59;;;;;;;;;;;;;;;;;;5487829;25;19931;-67
2024/04/24 13:08:24;;;;;;;;;;;;;;;;;;5458653;25;20383;-66
2024/04/24 13:10:49;;;;;;;;;;;;;;;;;;5454185;25;19935;-66
2024/04/24 13:13:15;;;;;;;;;;;;;;;;;;5455370;25;19929;-67
2024/04/24 13:15:40;;;;;;;;;;;;;;;;;;5476751;25;19934;-67
2024/04/24 13:18:05;;;;;;;;;;;;;;;;;;5481849;25;20292;-67
2024/04/24 13:20:30;;;;;;;;;;;;;;;;;;5485882;25;19940;-67
2024/04/24 13:22:55;;;;;;;;;;;;;;;;;;5450955;25;20471;-67
2024/04/24 13:25:20;;;;;;;;;;;;;;;;;;5470787;25;19935;-67
2024/04/24 13:27:45;;;;;;;;;;;;;;;;;;5485947;25;19995;-67
2024/04/24 13:30:10;;;;;;;;;;;;;;;;;;5466787;25;19936;-67
2024/04/24 13:32:37;;;;;;;;;;;;;;;;;;5487231;25;19937;-67
2024/04/24 13:35:02;;;;;;;;;;;;;;;;;;5463744;25;19957;-67
2024/04/24 13:37:27;;;;;;;;;;;;;;;;;;5471283;26;19928;-67
2024/04/24 13:39:52;;;;;;;;;;;;;;;;;;5476594;25;20343;-67
2024/04/24 13:42:17;;;;;;;;;;;;;;;;;;5474280;25;19928;-68
2024/04/24 13:44:45;;;;;;;;;;;;;;;;;;5473257;25;20388;-67
2024/04/24 13:47:12;;;;;;;;;;;;;;;;;;5470774;25;19940;-67
2024/04/24 13:49:37;;;;;;;;;;;;;;;;;;5465134;25;19940;-67
2024/04/24 13:52:02;;;;;;;;;;;;;;;;;;5457963;25;19929;-67
2024/04/24 13:54:27;;;;;;;;;;;;;;;;;;5476431;25;19987;-67
2024/04/24 13:56:55;;;;;;;;;;;;;;;;;;5464134;26;19928;-67
2024/04/24 13:59:20;;;;;;;;;;;;;;;;;;5464331;26;19932;-68
2024/04/24 14:01:49;;;;;;;;;;;;;;;;;;5466500;25;19928;-67
2024/04/24 14:04:14;;;;;;;;;;;;;;;;;;5476452;25;19935;-67
2024/04/24 14:06:39;;;;;;;;;;;;;;;;;;5466744;25;19962;-67
2024/04/24 14:09:04;;;;;;;;;;;;;;;;;;5461057;25;20000;-67
2024/04/24 14:11:30;;;;;;;;;;;;;;;;;;5484964;25;19927;-67
2024/04/24 14:13:55;;;;;;;;;;;;;;;;;;5482909;25;20404;-67
2024/04/24 14:16:20;;;;;;;;;;;;;;;;;;5493740;25;19927;-67
2024/04/24 14:18:45;;;;;;;;;;;;;;;;;;5495610;25;19939;-67
2024/04/24 14:21:11;;;;;;;;;;;;;;;;;;5483602;25;19935;-67
2024/04/24 14:23:36;;;;;;;;;;;;;;;;;;5474193;25;19946;-68
2024/04/24 14:26:01;;;;;;;;;;;;;;;;;;5478288;26;20384;-67
2024/04/24 14:28:26;;;;;;;;;;;;;;;;;;5495604;25;19927;-67
2024/04/24 14:30:51;;;;;;;;;;;;;;;;;;5481694;25;20273;-67
2024/04/24 14:33:16;;;;;;;;;;;;;;;;;;5478408;25;20004;-68
2024/04/24 14:35:42;;;;;;;;;;;;;;;;;;5481275;25;19939;-67
2024/04/24 14:38:08;;;;;;;;;;;;;;;;;;5486035;25;19934;-67
2024/04/24 14:40:34;;;;;;;;;;;;;;;;;;5465104;26;20554;-67
2024/04/24 14:42:59;;;;;;;;;;;;;;;;;;5474084;25;20013;-67
2024/04/24 14:45:24;;;;;;;;;;;;;;;;;;5471530;25;19928;-66
2024/04/24 14:47:49;;;;;;;;;;;;;;;;;;5479116;25;19939;-65
2024/04/24 14:50:14;;;;;;;;;;;;;;;;;;5474892;25;19935;-68
2024/04/24 14:52:40;;;;;;;;;;;;;;;;;;5476049;25;19929;-68
2024/04/24 14:55:06;;;;;;;;;;;;;;;;;;5473772;25;19947;-65
2024/04/24 14:57:31;;;;;;;;;;;;;;;;;;5473642;25;20254;-65
2024/04/24 14:59:56;;;;;;;;;;;;;;;;;;5472164;26;19936;-66
2024/04/24 15:02:21;;;;;;;;;;;;;;;;;;5465290;25;19940;-66
2024/04/24 15:04:47;;;;;;;;;;;;;;;;;;5485155;25;20339;-67
2024/04/24 15:07:13;;;;;;;;;;;;;;;;;;5469229;25;19973;-66
2024/04/24 15:09:38;;;;;;;;;;;;;;;;;;5482467;25;19928;-67
2024/04/24 15:12:03;;;;;;;;;;;;;;;;;;5480533;25;19928;-66
2024/04/24 15:14:28;;;;;;;;;;;;;;;;;;5472919;26;20343;-66
2024/04/24 15:16:53;;;;;;;;;;;;;;;;;;5457681;25;20025;-67
2024/04/24 15:19:18;;;;;;;;;;;;;;;;;;5447114;26;19929;-67
2024/04/24 15:21:43;;;;;;;;;;;;;;;;;;5469764;25;19991;-66
2024/04/24 15:24:09;;;;;;;;;;;;;;;;;;5450778;25;19940;-68
2024/04/24 15:26:34;;;;;;;;;;;;;;;;;;5495223;25;19979;-67
2024/04/24 15:28:59;;;;;;;;;;;;;;;;;;5471215;26;19937;-66
2024/04/24 15:31:24;;;;;;;;;;;;;;;;;;5472526;26;20372;-68
2024/04/24 15:33:49;;;;;;;;;;;;;;;;;;5486510;26;20033;-67
2024/04/24 15:36:14;;;;;;;;;;;;;;;;;;5481926;26;19928;-68
2024/04/24 15:38:39;;;;;;;;;;;;;;;;;;5484181;26;20046;-66
2024/04/24 15:41:05;;;;;;;;;;;;;;;;;;5480639;25;19933;-67
2024/04/24 15:43:30;;;;;;;;;;;;;;;;;;5474158;26;19934;-66
2024/04/24 15:45:56;;;;;;;;;;;;;;;;;;5484178;26;19928;-67
2024/04/24 15:48:21;;;;;;;;;;;;;;;;;;5488581;26;20498;-66
2024/04/24 15:50:46;;;;;;;;;;;;;;;;;;5467867;26;19929;-67
2024/04/24 15:53:11;;;;;;;;;;;;;;;;;;5468589;26;19934;-67
2024/04/24 15:55:36;;;;;;;;;;;;;;;;;;5504844;25;19934;-66
2024/04/24 15:58:01;;;;;;;;;;;;;;;;;;5496495;26;20229;-67
2024/04/24 16:00:27;;;;;;;;;;;;;;;;;;5471309;25;19931;-67
2024/04/24 16:02:52;;;;;;;;;;;;;;;;;;5463553;26;19935;-67
2024/04/24 16:05:17;;;;;;;;;;;;;;;;;;5482170;26;19927;-66
2024/04/24 16:07:43;;;;;;;;;;;;;;;;;;5483120;25;20112;-67
2024/04/24 16:10:08;;;;;;;;;;;;;;;;;;5467950;25;20288;-67
2024/04/24 16:12:33;;;;;;;;;;;;;;;;;;5495271;25;20020;-67
2024/04/24 16:14:58;;;;;;;;;;;;;;;;;;5489903;25;20344;-66
2024/04/24 16:17:24;;;;;;;;;;;;;;;;;;5485510;25;20274;-67
2024/04/24 16:19:49;;;;;;;;;;;;;;;;;;5494841;26;19928;-66
2024/04/24 16:22:14;;;;;;;;;;;;;;;;;;5480561;25;19935;-68
2024/04/24 16:24:39;;;;;;;;;;;;;;;;;;5464954;26;19935;-67
2024/04/24 16:27:06;;;;;;;;;;;;;;;;;;5466536;26;20635;-67
2024/04/24 16:29:31;;;;;;;;;;;;;;;;;;5471613;26;20277;-67
2024/04/24 16:31:56;;;;;;;;;;;;;;;;;;5480639;26;20360;-67
2024/04/24 16:34:21;;;;;;;;;;;;;;;;;;5491863;25;19956;-67